Vitebsk, Belarus
Current Conditions -  °F | °C
As of 7:00 PM on Saturday 22 Nov 2014 (Local Time) from UMII Reporting Station
Scattered Clouds Scattered Clouds  
Wind Chill: 24°   Ceiling: Unl
Heat Index: 30°   Visibility: 4mi
Dew Point: 16°   Wind: 7mph
Humidity: 55%   Direction: 170°S
Pressure: 30.36"   Gusts: NA
Location:  55.17°N, 30.22°E
Report Text: UMII 221700Z 17003MPS P6000 SCT040 SCT300 M01/M09 Q1028 NOSIG
Loading
Personal Weather Stations






























Interactive Weather Map New forecast layout! Learn more

10-Day Weather Forecast

Advertisements
Track Severe Weather on mobile